createdAt,value
2019-02-18T00:01:03.320Z,-2.89
2019-02-18T00:03:29.571Z,-2.84
2019-02-18T00:05:55.811Z,-2.77
2019-02-18T00:08:22.041Z,-2.71
2019-02-18T00:10:48.320Z,-2.69
2019-02-18T00:13:14.559Z,-2.66
2019-02-18T00:15:40.788Z,-2.63
2019-02-18T00:18:07.033Z,-2.53
2019-02-18T00:20:33.355Z,-2.48
2019-02-18T00:22:59.598Z,-2.40
2019-02-18T00:25:25.825Z,-2.35
2019-02-18T00:27:52.070Z,-2.33
2019-02-18T00:30:18.303Z,-2.30
2019-02-18T00:32:44.567Z,-2.24
2019-02-18T00:35:10.784Z,-2.25
2019-02-18T00:37:37.079Z,-2.25
2019-02-18T00:40:44.613Z,-2.26
2019-02-18T00:43:52.197Z,-2.21
2019-02-18T00:46:18.434Z,-2.15
2019-02-18T00:48:44.689Z,-2.15
2019-02-18T00:51:10.922Z,-2.19
2019-02-18T00:53:37.166Z,-2.19
2019-02-18T00:56:03.401Z,-2.18
2019-02-18T00:58:29.647Z,-2.17
2019-02-18T01:00:55.900Z,-2.12
2019-02-18T01:03:22.138Z,-2.08
2019-02-18T01:05:48.373Z,-2.04
2019-02-18T01:08:14.625Z,-2.00
2019-02-18T01:10:40.850Z,-2.01
2019-02-18T01:13:07.087Z,-1.99
2019-02-18T01:15:33.321Z,-1.92
2019-02-18T01:17:59.568Z,-1.93
2019-02-18T01:20:25.813Z,-1.90
2019-02-18T01:22:52.044Z,-1.89
2019-02-18T01:25:18.268Z,-1.87
2019-02-18T01:27:44.521Z,-1.82
2019-02-18T01:33:24.618Z,-1.77
2019-02-18T01:35:50.843Z,-1.74
2019-02-18T01:38:17.090Z,-1.73
2019-02-18T01:40:43.321Z,-1.72
2019-02-18T01:43:09.560Z,-1.71
2019-02-18T01:45:35.792Z,-1.71
2019-02-18T01:48:02.030Z,-1.71
2019-02-18T01:50:28.257Z,-1.71
2019-02-18T01:52:54.502Z,-1.70
2019-02-18T01:55:20.734Z,-1.71
2019-02-18T01:57:46.966Z,-1.70
2019-02-18T02:00:54.529Z,-1.68
2019-02-18T02:03:20.778Z,-1.66
2019-02-18T02:05:47.001Z,-1.64
2019-02-18T02:08:13.250Z,-1.63
2019-02-18T02:10:39.487Z,-1.62
2019-02-18T02:13:26.179Z,-1.63
2019-02-18T02:15:52.425Z,-1.65
2019-02-18T02:18:18.649Z,-1.67
2019-02-18T02:20:44.904Z,-1.67
2019-02-18T02:23:11.133Z,-1.67
2019-02-18T02:25:37.382Z,-1.69
2019-02-18T02:28:03.620Z,-1.69
2019-02-18T02:30:29.864Z,-1.67
2019-02-18T02:32:56.091Z,-1.68
2019-02-18T02:35:22.368Z,-1.68
2019-02-18T02:37:48.613Z,-1.68
2019-02-18T02:40:14.864Z,-1.70
2019-02-18T02:42:41.109Z,-1.70
2019-02-18T02:45:48.682Z,-1.71
2019-02-18T02:48:14.886Z,-1.70
2019-02-18T02:50:41.136Z,-1.69
2019-02-18T02:53:07.373Z,-1.67
2019-02-18T02:55:33.623Z,-1.65
2019-02-18T02:57:59.853Z,-1.67
2019-02-18T03:00:26.107Z,-1.64
2019-02-18T03:02:52.335Z,-1.63
2019-02-18T03:08:19.840Z,-1.64
2019-02-18T03:13:14.905Z,-1.63
2019-02-18T03:15:41.155Z,-1.62
2019-02-18T03:18:07.402Z,-1.63
2019-02-18T03:20:33.637Z,-1.62
2019-02-18T03:22:59.864Z,-1.61
2019-02-18T03:26:07.416Z,-1.60
2019-02-18T03:31:34.232Z,-1.59
2019-02-18T03:37:14.216Z,-1.58
2019-02-18T03:39:40.453Z,-1.59
2019-02-18T03:42:06.697Z,-1.58
2019-02-18T03:44:32.949Z,-1.57
2019-02-18T03:46:59.165Z,-1.55
2019-02-18T03:49:25.414Z,-1.53
2019-02-18T03:51:51.637Z,-1.53
2019-02-18T03:54:17.864Z,-1.51
2019-02-18T03:56:44.111Z,-1.47
2019-02-18T03:59:10.339Z,-1.45
2019-02-18T04:01:36.633Z,-1.42
2019-02-18T04:04:02.848Z,-1.41
2019-02-18T04:06:29.071Z,-1.36
2019-02-18T04:08:55.305Z,-1.34
2019-02-18T04:11:21.547Z,-1.30
2019-02-18T04:13:47.800Z,-1.25
2019-02-18T04:16:14.043Z,-1.20
2019-02-18T04:18:40.282Z,-1.16
2019-02-18T04:21:06.511Z,-1.12
2019-02-18T04:23:32.756Z,-1.07
2019-02-18T04:25:58.980Z,-1.05
2019-02-18T04:28:25.220Z,-1.00
2019-02-18T04:30:51.454Z,-0.97
2019-02-18T04:33:17.692Z,-0.94
2019-02-18T04:35:43.964Z,-0.91
2019-02-18T04:38:10.193Z,-0.86
2019-02-18T04:40:36.420Z,-0.83
2019-02-18T04:43:02.665Z,-0.82
2019-02-18T04:45:28.877Z,-0.79
2019-02-18T04:47:55.123Z,-0.79
2019-02-18T04:50:21.348Z,-0.75
2019-02-18T04:52:47.596Z,-0.73
2019-02-18T04:55:13.834Z,-0.71
2019-02-18T04:57:40.075Z,-0.66
2019-02-18T05:03:06.640Z,-0.60
2019-02-18T05:05:32.885Z,-0.62
2019-02-18T05:07:59.124Z,-0.61
2019-02-18T05:10:25.366Z,-0.55
2019-02-18T05:12:51.594Z,-0.55
2019-02-18T05:15:17.842Z,-0.54
2019-02-18T05:17:44.075Z,-0.53
2019-02-18T05:20:10.318Z,-0.49
2019-02-18T05:22:36.571Z,-0.49
2019-02-18T05:25:44.122Z,-0.49
2019-02-18T05:28:10.366Z,-0.49
2019-02-18T05:30:36.614Z,-0.48
2019-02-18T05:33:02.854Z,-0.46
2019-02-18T05:35:29.103Z,-0.45
2019-02-18T05:37:55.335Z,-0.45
2019-02-18T05:40:21.583Z,-0.44
2019-02-18T05:42:47.803Z,-0.42
2019-02-18T05:45:14.050Z,-0.42
2019-02-18T05:47:40.272Z,-0.41
2019-02-18T05:50:47.819Z,-0.40
2019-02-18T05:53:14.075Z,-0.39
2019-02-18T05:55:40.325Z,-0.37
2019-02-18T05:58:06.546Z,-0.37
2019-02-18T06:00:32.816Z,-0.34
2019-02-18T06:02:59.046Z,-0.33
2019-02-18T06:05:25.305Z,-0.31
2019-02-18T06:07:51.540Z,-0.31
2019-02-18T06:10:17.779Z,-0.30
2019-02-18T06:12:44.012Z,-0.30
2019-02-18T06:15:10.252Z,-0.29
2019-02-18T06:17:36.488Z,-0.29
2019-02-18T06:20:44.042Z,-0.27
2019-02-18T06:23:10.292Z,-0.27
2019-02-18T06:25:36.545Z,-0.25
2019-02-18T06:28:04.864Z,-0.25
2019-02-18T06:30:30.928Z,-0.24
2019-02-18T06:32:57.189Z,-0.23
2019-02-18T06:35:23.548Z,-0.21
2019-02-18T06:37:49.777Z,-0.19
2019-02-18T06:40:16.018Z,-0.16
2019-02-18T06:42:42.261Z,-0.14
2019-02-18T06:45:49.808Z,-0.12
2019-02-18T06:51:03.685Z,-0.07
2019-02-18T06:53:29.917Z,-0.03
2019-02-18T06:55:56.166Z,-0.01
2019-02-18T07:01:29.775Z,0.06
2019-02-18T07:04:15.764Z,0.11
2019-02-18T07:09:35.990Z,0.17
2019-02-18T07:12:22.000Z,0.20
2019-02-18T07:14:48.223Z,0.22
2019-02-18T07:17:14.473Z,0.25
2019-02-18T07:19:40.706Z,0.26
2019-02-18T07:22:06.970Z,0.28
2019-02-18T07:24:33.200Z,0.31
2019-02-18T07:26:59.447Z,0.32
2019-02-18T07:29:25.672Z,0.31
2019-02-18T07:31:51.914Z,0.34
2019-02-18T07:34:18.153Z,0.37
2019-02-18T07:36:44.390Z,0.39
2019-02-18T07:39:10.624Z,0.42
2019-02-18T07:41:36.857Z,0.43
2019-02-18T07:44:03.131Z,0.46
2019-02-18T07:46:29.355Z,0.48
2019-02-18T07:48:55.596Z,0.50
2019-02-18T07:51:21.835Z,0.52
2019-02-18T07:53:48.067Z,0.53
2019-02-18T07:56:14.299Z,0.56
2019-02-18T07:58:40.549Z,0.58
2019-02-18T08:01:07.012Z,0.61
2019-02-18T08:03:33.247Z,0.66
2019-02-18T08:05:59.481Z,0.66
2019-02-18T08:08:25.715Z,0.70
2019-02-18T08:10:51.950Z,0.71
2019-02-18T08:13:18.244Z,0.74
2019-02-18T08:15:44.471Z,0.76
2019-02-18T08:18:10.705Z,0.81
2019-02-18T08:20:37.009Z,0.83
2019-02-18T08:23:03.268Z,0.87
2019-02-18T08:25:29.520Z,0.89
2019-02-18T08:27:55.762Z,0.90
2019-02-18T08:30:22.005Z,0.91
2019-02-18T08:32:48.240Z,0.90
2019-02-18T08:35:14.491Z,0.92
2019-02-18T08:37:40.771Z,0.96
2019-02-18T08:40:48.319Z,0.99
2019-02-18T08:43:14.546Z,0.98
2019-02-18T08:45:40.881Z,1.01
2019-02-18T08:48:07.114Z,1.03
2019-02-18T08:50:33.355Z,1.06
2019-02-18T08:52:59.588Z,1.04
2019-02-18T08:55:25.844Z,1.01
2019-02-18T08:57:52.073Z,1.01
2019-02-18T09:00:18.337Z,1.03
2019-02-18T09:02:44.570Z,1.01
2019-02-18T09:05:11.015Z,1.03
2019-02-18T09:07:37.256Z,1.07
2019-02-18T09:10:44.818Z,1.08
2019-02-18T09:13:11.048Z,1.12
2019-02-18T09:15:37.293Z,1.14
2019-02-18T09:18:03.525Z,1.14
2019-02-18T09:20:29.782Z,1.13
2019-02-18T09:23:15.794Z,1.16
2019-02-18T09:26:23.364Z,0.87
2019-02-18T09:28:49.596Z,1.24
2019-02-18T09:33:53.375Z,1.29
2019-02-18T09:36:21.372Z,1.32
2019-02-18T09:38:47.775Z,1.34
2019-02-18T09:41:14.021Z,1.37
2019-02-18T09:43:40.250Z,1.41
2019-02-18T09:46:06.500Z,1.43
2019-02-18T09:48:32.748Z,1.45
2019-02-18T09:51:00.078Z,1.46
2019-02-18T09:53:27.136Z,1.49
2019-02-18T09:55:53.400Z,1.50
2019-02-18T09:58:19.638Z,1.49
2019-02-18T10:00:45.909Z,1.55
2019-02-18T10:03:12.149Z,1.59
2019-02-18T10:05:38.368Z,1.60
2019-02-18T10:08:04.615Z,1.62
2019-02-18T10:10:30.857Z,1.61
2019-02-18T10:12:59.504Z,1.60
2019-02-18T10:17:53.281Z,1.66
2019-02-18T10:20:19.514Z,1.66
2019-02-18T10:22:45.768Z,1.68
2019-02-18T10:25:33.561Z,1.68
2019-02-18T10:27:59.820Z,1.70
2019-02-18T10:30:26.068Z,1.71
2019-02-18T10:32:52.317Z,1.70
2019-02-18T10:35:18.555Z,1.72
2019-02-18T10:37:54.632Z,1.73
2019-02-18T10:40:12.952Z,1.76
2019-02-18T10:42:39.200Z,1.78
2019-02-18T10:45:25.198Z,1.78
2019-02-18T10:47:51.446Z,1.80
2019-02-18T10:50:17.682Z,1.84
2019-02-18T10:52:43.933Z,1.86
2019-02-18T10:55:51.470Z,1.87
2019-02-18T10:58:17.733Z,1.89
2019-02-18T11:00:43.979Z,1.91
2019-02-18T11:03:10.228Z,1.88
2019-02-18T11:08:06.401Z,1.91
2019-02-18T11:10:32.643Z,1.88
2019-02-18T11:12:58.877Z,1.91
2019-02-18T11:15:27.011Z,1.93
2019-02-18T11:17:53.259Z,1.95
2019-02-18T11:20:19.491Z,1.93
2019-02-18T11:22:45.762Z,1.92
2019-02-18T11:28:25.132Z,1.90
2019-02-18T11:30:51.367Z,1.89
2019-02-18T11:33:17.604Z,1.82
2019-02-18T11:35:43.837Z,1.83
2019-02-18T11:38:10.076Z,1.81
2019-02-18T11:40:36.406Z,1.81
2019-02-18T11:43:02.651Z,1.80
2019-02-18T11:45:28.898Z,1.81
2019-02-18T11:47:55.130Z,1.79
2019-02-18T11:50:21.383Z,1.78
2019-02-18T11:52:47.623Z,1.82
2019-02-18T11:55:13.878Z,1.85
2019-02-18T11:57:42.122Z,1.80
2019-02-18T12:00:49.703Z,1.82
2019-02-18T12:03:15.949Z,1.82
2019-02-18T12:08:20.317Z,1.80
2019-02-18T12:10:46.573Z,1.87
2019-02-18T12:13:12.809Z,1.85
2019-02-18T12:15:39.062Z,1.89
2019-02-18T12:18:05.301Z,1.93
2019-02-18T12:20:31.554Z,1.92
2019-02-18T12:22:57.827Z,1.90
2019-02-18T12:25:24.285Z,1.94
2019-02-18T12:27:50.521Z,1.96
2019-02-18T12:30:58.091Z,2.02
2019-02-18T12:33:24.635Z,2.06
2019-02-18T12:35:50.878Z,2.07
2019-02-18T12:38:17.498Z,2.07
2019-02-18T12:43:22.198Z,2.00
2019-02-18T12:45:48.763Z,1.99
2019-02-18T12:48:16.896Z,1.97
2019-02-18T12:50:43.151Z,1.94
2019-02-18T12:53:09.402Z,1.95
2019-02-18T12:55:35.881Z,1.94
2019-02-18T12:58:03.791Z,1.92
2019-02-18T13:00:30.268Z,1.90
2019-02-18T13:02:56.504Z,1.88
2019-02-18T13:05:22.758Z,1.86
2019-02-18T13:07:49.007Z,1.83
2019-02-18T13:10:15.262Z,1.83
2019-02-18T13:12:43.395Z,1.83
2019-02-18T13:15:50.935Z,1.80
2019-02-18T13:18:17.181Z,1.80
2019-02-18T13:20:43.437Z,1.78
2019-02-18T13:23:11.583Z,1.78
2019-02-18T13:25:37.837Z,1.78
2019-02-18T13:28:08.405Z,1.80
2019-02-18T13:30:32.263Z,1.81
2019-02-18T13:32:58.501Z,1.80
2019-02-18T13:35:24.780Z,1.81
2019-02-18T13:37:51.016Z,1.82
2019-02-18T13:40:17.266Z,1.86
2019-02-18T13:42:45.447Z,1.85
2019-02-18T13:48:19.044Z,1.83
2019-02-18T13:50:45.496Z,1.82
2019-02-18T13:53:11.748Z,1.81
2019-02-18T13:55:38.145Z,1.81
2019-02-18T13:58:04.399Z,1.82
2019-02-18T14:00:30.956Z,1.79
2019-02-18T14:02:57.253Z,1.71
2019-02-18T14:05:23.481Z,1.75
2019-02-18T14:07:49.746Z,1.73
2019-02-18T14:13:31.970Z,1.70
2019-02-18T14:16:00.112Z,1.68
2019-02-18T14:18:26.388Z,1.65
2019-02-18T14:20:52.629Z,1.65
2019-02-18T14:23:18.884Z,1.65
2019-02-18T14:25:45.134Z,1.65
2019-02-18T14:28:11.381Z,1.66
2019-02-18T14:30:37.613Z,1.64
2019-02-18T14:33:03.864Z,1.63
2019-02-18T14:35:32.050Z,1.63
2019-02-18T14:37:58.357Z,1.61
2019-02-18T14:43:32.098Z,1.59
2019-02-18T14:45:58.346Z,1.57
2019-02-18T14:48:24.591Z,1.54
2019-02-18T14:50:56.485Z,1.51
2019-02-18T14:53:19.029Z,1.47
2019-02-18T14:55:45.338Z,1.44
2019-02-18T15:00:45.506Z,1.40
2019-02-18T15:03:11.762Z,1.39
2019-02-18T15:05:38.000Z,1.39
2019-02-18T15:10:38.405Z,1.31
2019-02-18T15:13:04.674Z,1.29
2019-02-18T15:15:30.906Z,1.28
2019-02-18T15:20:35.432Z,1.27
2019-02-18T15:23:01.685Z,1.26
2019-02-18T15:25:27.916Z,1.25
2019-02-18T15:27:54.174Z,1.22
2019-02-18T15:33:08.046Z,1.20
2019-02-18T15:35:34.357Z,1.20
2019-02-18T15:38:00.599Z,1.18
2019-02-18T15:40:26.837Z,1.13
2019-02-18T15:42:53.068Z,1.10
2019-02-18T15:45:19.312Z,1.05
2019-02-18T15:47:45.542Z,1.04
2019-02-18T15:50:13.819Z,1.06
2019-02-18T15:52:40.059Z,1.06
2019-02-18T15:55:47.612Z,1.06
2019-02-18T15:58:13.969Z,1.03
2019-02-18T16:00:40.236Z,1.03
2019-02-18T16:03:06.476Z,1.01
2019-02-18T16:05:32.716Z,1.04
2019-02-18T16:07:58.993Z,1.06
2019-02-18T16:10:25.218Z,1.04
2019-02-18T16:12:51.453Z,1.01
2019-02-18T16:15:17.706Z,0.99
2019-02-18T16:17:45.855Z,0.96
2019-02-18T16:20:53.406Z,0.92
2019-02-18T16:23:19.685Z,0.89
2019-02-18T16:25:47.871Z,0.85
2019-02-18T16:28:14.109Z,0.85
2019-02-18T16:30:40.370Z,0.82
2019-02-18T16:33:06.604Z,0.79
2019-02-18T16:35:34.765Z,0.76
2019-02-18T16:38:01.007Z,0.73
2019-02-18T16:40:29.288Z,0.70
2019-02-18T16:42:59.390Z,0.67
2019-02-18T16:45:24.240Z,0.70
2019-02-18T16:47:50.479Z,0.66
2019-02-18T16:50:16.745Z,0.63
2019-02-18T16:52:42.975Z,0.63
2019-02-18T16:55:50.748Z,0.64
2019-02-18T16:58:17.029Z,0.59
2019-02-18T17:00:43.304Z,0.52
2019-02-18T17:03:09.713Z,0.47
2019-02-18T17:05:35.977Z,0.45
2019-02-18T17:08:02.217Z,0.44
2019-02-18T17:10:30.384Z,0.45
2019-02-18T17:12:56.640Z,0.41
2019-02-18T17:15:22.909Z,0.37
2019-02-18T17:17:49.131Z,0.33
2019-02-18T17:20:15.368Z,0.36
2019-02-18T17:22:41.610Z,0.33
2019-02-18T17:25:49.178Z,0.28
2019-02-18T17:28:15.542Z,0.25
2019-02-18T17:30:41.798Z,0.24
2019-02-18T17:33:08.031Z,0.25
2019-02-18T17:35:34.268Z,0.21
2019-02-18T17:38:00.520Z,0.19
2019-02-18T17:40:26.783Z,0.22
2019-02-18T17:42:53.028Z,0.26
2019-02-18T17:45:19.256Z,0.32
2019-02-18T17:47:45.497Z,0.37
2019-02-18T17:50:31.507Z,0.39
2019-02-18T17:52:58.234Z,0.42
2019-02-18T17:55:25.917Z,0.43
2019-02-18T17:57:52.170Z,0.43
2019-02-18T18:00:59.698Z,0.46
2019-02-18T18:03:26.266Z,0.48
2019-02-18T18:06:12.275Z,0.49
2019-02-18T18:08:38.529Z,0.54
2019-02-18T18:11:04.765Z,0.55
2019-02-18T18:13:31.033Z,0.61
2019-02-18T18:15:59.178Z,0.64
2019-02-18T18:18:25.432Z,0.65
2019-02-18T18:20:51.666Z,0.63
2019-02-18T18:23:17.976Z,0.63
2019-02-18T18:25:44.209Z,0.65
2019-02-18T18:28:10.440Z,0.65
2019-02-18T18:30:36.686Z,0.65
2019-02-18T18:33:03.017Z,0.62
2019-02-18T18:35:31.181Z,0.61
2019-02-18T18:37:57.469Z,0.61
2019-02-18T18:40:23.708Z,0.60
2019-02-18T18:42:49.942Z,0.59
2019-02-18T18:45:57.506Z,0.56
2019-02-18T18:48:23.746Z,0.53
2019-02-18T18:50:49.984Z,0.51
2019-02-18T18:53:16.237Z,0.50
2019-02-18T18:55:42.616Z,0.50
2019-02-18T18:58:08.865Z,0.48
2019-02-18T19:00:35.104Z,0.44
2019-02-18T19:03:03.277Z,0.42
2019-02-18T19:05:29.495Z,0.43
2019-02-18T19:07:55.733Z,0.42
2019-02-18T19:10:21.969Z,0.39
2019-02-18T19:12:48.221Z,0.37
2019-02-18T19:15:55.763Z,0.37
2019-02-18T19:18:22.028Z,0.39
2019-02-18T19:20:48.263Z,0.38
2019-02-18T19:23:14.514Z,0.38
2019-02-18T19:25:40.745Z,0.36
2019-02-18T19:28:06.975Z,0.35
2019-02-18T19:30:33.316Z,0.37
2019-02-18T19:32:59.555Z,0.37
2019-02-18T19:35:25.799Z,0.39
2019-02-18T19:37:52.037Z,0.39
2019-02-18T19:40:18.289Z,0.40
2019-02-18T19:42:44.524Z,0.40
2019-02-18T19:45:52.088Z,0.38
2019-02-18T19:48:18.335Z,0.42
2019-02-18T19:50:44.579Z,0.42
2019-02-18T19:53:10.833Z,0.42
2019-02-18T19:55:37.072Z,0.38
2019-02-18T19:58:03.311Z,0.37
2019-02-18T20:00:29.561Z,0.37
2019-02-18T20:02:55.813Z,0.37
2019-02-18T20:05:22.058Z,0.36
2019-02-18T20:07:48.303Z,0.35
2019-02-18T20:10:14.588Z,0.31
2019-02-18T20:12:40.816Z,0.26
2019-02-18T20:15:28.805Z,0.21
2019-02-18T20:17:55.049Z,0.16
2019-02-18T20:20:21.293Z,0.10
2019-02-18T20:22:47.539Z,0.07
2019-02-18T20:25:13.792Z,0.04
2019-02-18T20:27:40.075Z,0.00
2019-02-18T20:30:26.076Z,-0.03
2019-02-18T20:32:52.319Z,-0.07
2019-02-18T20:35:18.580Z,-0.10
2019-02-18T20:37:44.820Z,-0.16
2019-02-18T20:40:11.171Z,-0.20
2019-02-18T20:42:39.328Z,-0.26
2019-02-18T20:45:25.311Z,-0.29
2019-02-18T20:47:51.547Z,-0.42
2019-02-18T20:50:17.790Z,-0.49
2019-02-18T20:52:44.020Z,-0.52
2019-02-18T20:55:51.560Z,-0.51
2019-02-18T20:58:17.811Z,-0.52
2019-02-18T21:00:44.057Z,-0.60
2019-02-18T21:03:10.426Z,-0.61
2019-02-18T21:05:36.871Z,-0.67
2019-02-18T21:10:50.708Z,-0.88
2019-02-18T21:13:16.954Z,-0.93
2019-02-18T21:15:43.194Z,-0.96
2019-02-18T21:18:11.328Z,-1.05
2019-02-18T21:20:37.567Z,-1.14
2019-02-18T21:23:03.810Z,-1.20
2019-02-18T21:25:30.045Z,-1.22
2019-02-18T21:27:56.283Z,-1.21
2019-02-18T21:30:22.510Z,-1.22
2019-02-18T21:32:48.795Z,-1.26
2019-02-18T21:35:15.020Z,-1.33
2019-02-18T21:37:43.172Z,-1.38
2019-02-18T21:40:29.162Z,-1.41
2019-02-18T21:42:55.411Z,-1.48
2019-02-18T21:45:21.641Z,-1.53
2019-02-18T21:47:47.893Z,-1.59
2019-02-18T21:50:14.129Z,-1.63
2019-02-18T21:52:40.360Z,-1.65
2019-02-18T21:55:47.898Z,-1.70
2019-02-18T21:58:14.762Z,-1.74
2019-02-18T22:00:42.343Z,-1.78
2019-02-18T22:03:08.581Z,-1.81
2019-02-18T22:05:34.812Z,-1.82
2019-02-18T22:08:01.068Z,-1.83
2019-02-18T22:10:27.292Z,-1.89
2019-02-18T22:12:53.546Z,-1.95
2019-02-18T22:15:19.771Z,-1.97
2019-02-18T22:17:46.012Z,-1.98
2019-02-18T22:20:14.149Z,-2.05
2019-02-18T22:22:40.395Z,-2.09
2019-02-18T22:28:20.244Z,-2.12
2019-02-18T22:30:46.475Z,-2.22
2019-02-18T22:33:12.741Z,-2.23
2019-02-18T22:35:45.748Z,-2.27
2019-02-18T22:38:11.991Z,-2.29
2019-02-18T22:40:38.221Z,-2.33
2019-02-18T22:43:04.459Z,-2.34
2019-02-18T22:45:30.683Z,-2.36
2019-02-18T22:47:57.155Z,-2.45
2019-02-18T22:50:23.389Z,-2.58
2019-02-18T22:52:49.648Z,-2.69
2019-02-18T22:55:15.884Z,-2.83
2019-02-18T22:57:42.131Z,-2.98
2019-02-18T23:00:49.665Z,-2.96
2019-02-18T23:03:15.920Z,-2.90
2019-02-18T23:05:42.171Z,-2.97
2019-02-18T23:08:08.424Z,-3.25
2019-02-18T23:10:34.652Z,-3.27
2019-02-18T23:13:00.896Z,-3.23
2019-02-18T23:15:27.131Z,-3.21
2019-02-18T23:17:55.279Z,-3.21
2019-02-18T23:20:21.519Z,-3.19
2019-02-18T23:22:47.754Z,-3.19
2019-02-18T23:25:14.012Z,-3.22
2019-02-18T23:27:40.236Z,-3.24
2019-02-18T23:30:47.795Z,-3.25
2019-02-18T23:33:14.036Z,-3.29
2019-02-18T23:35:40.292Z,-3.34
2019-02-18T23:38:06.534Z,-3.36
2019-02-18T23:40:32.784Z,-3.37
2019-02-18T23:42:59.037Z,-3.40
2019-02-18T23:45:25.257Z,-3.41
2019-02-18T23:47:51.484Z,-3.44
2019-02-18T23:50:17.724Z,-3.49
2019-02-18T23:52:43.956Z,-3.53
2019-02-18T23:55:10.203Z,-3.57
2019-02-18T23:57:36.438Z,-3.61
